Home > Products > Valid Products > TAF

000
FTUS43 KDVN 312320
TAFBRL
TAF
KBRL 312320Z 0100/0124 16007KT P6SM SCT050
     FM010500 15004KT 6SM BR SKC
     FM010700 18005KT 4SM BR SKC
     FM011400 21010KT P6SM SCT050=



000
FTUS43 KDVN 312320
TAFCID
TAF
KCID 312320Z 0100/0124 17005KT P6SM FEW035
     FM010300 16005KT 6SM HZ SKC
     FM010600 16004KT 5SM BR SKC
      TEMPO 0109/0112 2SM BR
     FM011400 22010KT P6SM SCT050=



000
FTUS43 KDVN 312320
TAFMLI
TAF
KMLI 312320Z 0100/0124 16006KT P6SM SCT050
     FM010800 17004KT 5SM BR SKC
     FM011400 23009KT P6SM SCT050=



000
FTUS43 KDVN 312320
TAFDBQ
TAF
KDBQ 312320Z 0100/0124 18007KT P6SM FEW035
     FM010600 16004KT 5SM BR SKC
     FM010900 16003KT 3SM BR SKC
      TEMPO 0109/0112 1SM BR
     FM011400 20007KT P6SM SCT050=



000
FTUS43 KDVN 312147 AAA
TAFBRL
TAF AMD
KBRL 312147Z 3122/0118 17008KT P6SM SCT050
     FM010100 17004KT 6SM HZ FEW050
     FM010700 18005KT 4SM BR SKC
     FM011200 21006KT 4SM BR SKC=



000
FTUS43 KDVN 312146 AAA
TAFDBQ
TAF AMD
KDBQ 312146Z 3122/0118 18008KT P6SM SCT040
     FM010100 16005KT 6SM HZ FEW050
     FM010700 18005KT 4SM BR SKC
     FM011400 20007KT 5SM BR SKC=



000
FTUS43 KDVN 312145 AAA
TAFCID
TAF AMD
KCID 312145Z 3122/0118 19010KT P6SM SCT035
     FM010100 16005KT 6SM HZ FEW050
     FM010600 16005KT 4SM BR SKC
     FM011300 20007KT 4SM BR SKC=



000
FTUS43 KDVN 311722
TAFCID
TAF
KCID 311722Z 3118/0118 17010KT 6SM HZ SCT050
     FM010000 16005KT 6SM HZ FEW050
     FM010600 16005KT 4SM BR SKC
     FM011300 20007KT 4SM BR SKC=



000
FTUS43 KDVN 311722
TAFCID
TAF
KCID 311722Z 3118/0118 17010KT 6SM HZ SCT050
     FM010000 16005KT 6SM HZ FEW050
     FM010600 16005KT 4SM BR SKC
     FM011300 20007KT 4SM BR SKC=



000
FTUS43 KDVN 311722
TAFDBQ
TAF
KDBQ 311722Z 3118/0118 18008KT 6SM HZ SCT050
     FM010000 16005KT 6SM HZ FEW050
     FM010700 18005KT 4SM BR SKC
     FM011400 20007KT 5SM BR SKC=



000
FTUS43 KDVN 311722
TAFBRL
TAF
KBRL 311722Z 3118/0118 16007KT 6SM HZ SCT050
     FM010000 17004KT 6SM HZ FEW050
     FM010700 18005KT 4SM BR SKC
     FM011200 21006KT 4SM BR SKC=



000
FTUS43 KDVN 311722
TAFMLI
TAF
KMLI 311722Z 3118/0118 15007KT P6SM SCT050
     FM010000 15004KT P6SM FEW050
     FM010800 17004KT 5SM BR SKC
     FM011300 20006KT 5SM BR SKC=



000
FTUS43 KDVN 311722
TAFMLI
TAF
KMLI 311722Z 3118/0118 15007KT P6SM SCT050
     FM010000 15004KT P6SM FEW050
     FM010800 17004KT 5SM BR SKC
     FM011300 20006KT 5SM BR SKC=



000
FTUS43 KDVN 311722
TAFDBQ
TAF
KDBQ 311722Z 3118/0118 18008KT 6SM HZ SCT050
     FM010000 16005KT 6SM HZ FEW050
     FM010700 18005KT 4SM BR SKC
     FM011400 20007KT 5SM BR SKC=



000
FTUS43 KDVN 311722
TAFBRL
TAF
KBRL 311722Z 3118/0118 16007KT 6SM HZ SCT050
     FM010000 17004KT 6SM HZ FEW050
     FM010700 18005KT 4SM BR SKC
     FM011200 21006KT 4SM BR SKC=



000
FTUS43 KDVN 311604 AAD
TAFDBQ
TAF AMD
KDBQ 311604Z 3116/0112 18008KT 6SM HZ SCT035
     FM011000 18005KT 4SM BR SKC=



000
FTUS43 KDVN 311604 AAD
TAFDBQ
TAF AMD
KDBQ 311604Z 3116/0112 18008KT 6SM HZ SCT035
     FM011000 18005KT 4SM BR SKC=



000
FTUS43 KDVN 311603 AAB
TAFCID
TAF AMD
KCID 311603Z 3116/0112 17007KT P6SM SCT035
     FM011000 17004KT 4SM BR SKC=



000
FTUS43 KDVN 311457 AAA
TAFMLI
TAF AMD
KMLI 311457Z 3115/0112 VRB03KT 6SM HZ SKC
     FM311800 17007KT P6SM SCT035
     FM011000 18003KT 4SM BR SKC=



000
FTUS43 KDVN 311457 AAA
TAFMLI
TAF AMD
KMLI 311457Z 3115/0112 VRB03KT 6SM HZ SKC
     FM311800 17007KT P6SM SCT035
     FM011000 18003KT 4SM BR SKC=



000
FTUS43 KDVN 311356 AAC
TAFDBQ
TAF AMD
KDBQ 311356Z 3114/0112 19004KT 2SM BR SKC
     FM311500 18008KT 4SM HZ SCT035
     FM011000 18005KT 4SM BR SKC=



000
FTUS43 KDVN 311340 AAA
TAFCID
TAF AMD
KCID 311340Z 3114/0112 16006KT 4SM BR SKC
     FM311700 17007KT P6SM SCT035
     FM011000 17004KT 4SM BR SKC=



000
FTUS43 KDVN 311305 AAB
TAFDBQ
TAF AMD
KDBQ 311305Z 3113/0112 00000KT 1SM BR FEW003
     FM311400 19004KT 3SM BR SKC
     FM311500 18008KT P6SM SCT035
     FM011000 18005KT 4SM BR SKC=



000
FTUS43 KDVN 311305 AAB
TAFDBQ
TAF AMD
KDBQ 311305Z 3113/0112 00000KT 1SM BR FEW003
     FM311400 19004KT 3SM BR SKC
     FM311500 18008KT P6SM SCT035
     FM011000 18005KT 4SM BR SKC=



000
FTUS43 KDVN 311147 AAA
TAFDBQ
TAF AMD
KDBQ 311147Z 3112/0112 00000KT 4SM BR SCT003
      TEMPO 3112/3113 1/2SM FG BKN003
     FM311500 18008KT P6SM SCT035
     FM011000 18005KT 4SM BR SKC=



000
FTUS43 KDVN 311147 AAA
TAFDBQ
TAF AMD
KDBQ 311147Z 3112/0112 00000KT 4SM BR SCT003
      TEMPO 3112/3113 1/2SM FG BKN003
     FM311500 18008KT P6SM SCT035
     FM011000 18005KT 4SM BR SKC=



000
FTUS43 KDVN 311120
TAFDBQ
TAF
KDBQ 311120Z 3112/0112 00000KT 4SM BR SCT003
      TEMPO 3112/3113 1/2SM FG SKC
     FM311500 18008KT P6SM SCT035
     FM011000 18005KT 4SM BR SKC=



000
FTUS43 KDVN 311120
TAFMLI
TAF
KMLI 311120Z 3112/0112 09003KT 4SM BR SKC
      TEMPO 3112/3113 3/4SM BR SKC
     FM311600 17007KT P6SM SCT035
     FM011000 18003KT 4SM BR SKC=



000
FTUS43 KDVN 311120
TAFCID
TAF
KCID 311120Z 3112/0112 00000KT 2SM BR SKC
      TEMPO 3112/3113 3/4SM BR SCT002
     FM311500 16006KT 4SM BR SKC
     FM311700 17007KT P6SM SCT035
     FM011000 17004KT 4SM BR SKC=



000
FTUS43 KDVN 311120
TAFMLI
TAF
KMLI 311120Z 3112/0112 09003KT 4SM BR SKC
      TEMPO 3112/3113 3/4SM BR SKC
     FM311600 17007KT P6SM SCT035
     FM011000 18003KT 4SM BR SKC=



000
FTUS43 KDVN 311120
TAFBRL
TAF
KBRL 311120Z 3112/0112 00000KT 5SM BR SKC
      TEMPO 3112/3113 1SM BR SKC
     FM311500 16008KT P6SM SCT035
     FM011000 19004KT 4SM BR SKC=



000
FTUS43 KDVN 311120
TAFDBQ
TAF
KDBQ 311120Z 3112/0112 00000KT 4SM BR SCT003
      TEMPO 3112/3113 1/2SM FG SKC
     FM311500 18008KT P6SM SCT035
     FM011000 18005KT 4SM BR SKC=



000
FTUS43 KDVN 311120
TAFCID
TAF
KCID 311120Z 3112/0112 00000KT 2SM BR SKC
      TEMPO 3112/3113 3/4SM BR SCT002
     FM311500 16006KT 4SM BR SKC
     FM311700 17007KT P6SM SCT035
     FM011000 17004KT 4SM BR SKC=



000
FTUS43 KDVN 311120
TAFBRL
TAF
KBRL 311120Z 3112/0112 00000KT 5SM BR SKC
      TEMPO 3112/3113 1SM BR SKC
     FM311500 16008KT P6SM SCT035
     FM011000 19004KT 4SM BR SKC=



000
FTUS43 KDVN 310903 AAA
TAFCID
TAF AMD
KCID 310903Z 3109/0106 00000KT 2SM BR SKC
      TEMPO 3109/3113 1/4SM FG BKN002
     FM311500 16006KT 4SM BR BKN008
     FM311700 17007KT P6SM SCT035=



000
FTUS43 KDVN 310903 AAD
TAFMLI
TAF AMD
KMLI 310903Z 3109/0106 09003KT 6SM BR SKC
      TEMPO 3109/3113 1/2SM FG BKN002
     FM311600 17007KT P6SM BKN035=



000
FTUS43 KDVN 310903 AAC
TAFBRL
TAF AMD
KBRL 310903Z 3109/0106 00000KT P6SM SKC
      TEMPO 3109/3113 1/2SM FG VV002
     FM311500 16008KT P6SM BKN035=



000
FTUS43 KDVN 310903 AAG
TAFDBQ
TAF AMD
KDBQ 310903Z 3109/0106 00000KT 4SM BR SCT003
      TEMPO 3109/3113 1/4SM FG VV002
     FM311500 18008KT P6SM BKN035=



000
FTUS43 KDVN 310807 AAF
TAFDBQ
TAF AMD
KDBQ 310807Z 3108/0106 00000KT 3SM BR SCT008
      TEMPO 3108/3112 1/4SM FG VV002
     FM311500 18008KT P6SM BKN035=



000
FTUS43 KDVN 310723 AAB
TAFBRL
TAF AMD
KBRL 310723Z 3107/0106 10003KT P6SM SKC
     FM310900 00000KT 1SM BR BKN002
      TEMPO 3109/3112 1/4SM FG VV002
     FM311500 16008KT P6SM BKN035=



000
FTUS43 KDVN 310723 AAB
TAFBRL
TAF AMD
KBRL 310723Z 3107/0106 10003KT P6SM SKC
     FM310900 00000KT 1SM BR BKN002
      TEMPO 3109/3112 1/4SM FG VV002
     FM311500 16008KT P6SM BKN035=



000
FTUS43 KDVN 310722 AAC
TAFMLI
TAF AMD
KMLI 310722Z 3107/0106 00000KT 3SM BR SKC
      TEMPO 3109/3112 1/2SM FG BKN002
     FM311600 17007KT P6SM BKN035=



000
FTUS43 KDVN 310722 AAC
TAFMLI
TAF AMD
KMLI 310722Z 3107/0106 00000KT 3SM BR SKC
      TEMPO 3109/3112 1/2SM FG BKN002
     FM311600 17007KT P6SM BKN035=



000
FTUS43 KDVN 310714 AAB
TAFMLI
TAF AMD
KMLI 310714Z 3107/0106 00000KT 3/4SM BR SKC
      TEMPO 3109/3112 1/2SM FG BKN002
     FM311600 17007KT P6SM BKN035=



000
FTUS43 KDVN 310703 AAE
TAFDBQ
TAF AMD
KDBQ 310703Z 3107/0106 00000KT 3SM BR SCT008
      TEMPO 3107/3111 1/2SM FG BKN004
     FM311500 18008KT P6SM BKN035=



000
FTUS43 KDVN 310703 AAE
TAFDBQ
TAF AMD
KDBQ 310703Z 3107/0106 00000KT 3SM BR SCT008
      TEMPO 3107/3111 1/2SM FG BKN004
     FM311500 18008KT P6SM BKN035=



000
FTUS43 KDVN 310638 AAA
TAFBRL
TAF AMD
KBRL 310638Z 3107/0106 10003KT P6SM SKC
     FM310730 00000KT 2SM BR FEW004
     FM310900 00000KT 1SM BR BKN002
      TEMPO 3109/3112 1/4SM FG VV002
     FM311500 16008KT P6SM BKN035=



000
FTUS43 KDVN 310638 AAA
TAFBRL
TAF AMD
KBRL 310638Z 3107/0106 10003KT P6SM SKC
     FM310730 00000KT 2SM BR FEW004
     FM310900 00000KT 1SM BR BKN002
      TEMPO 3109/3112 1/4SM FG VV002
     FM311500 16008KT P6SM BKN035=



000
FTUS43 KDVN 310629 AAD
TAFDBQ
TAF AMD
KDBQ 310629Z 3106/0106 00000KT 2SM BR SCT008
      TEMPO 3106/3110 1/2SM FG BKN004
     FM311500 18008KT P6SM BKN035=



000
FTUS43 KDVN 310627 AAB
TAFDBQ
TAF AMD
KDBQ 310627Z 3106/0106 00000KT 2SM BR SCT008
      TEMPO 3106/3110 1/4SM FG BKN004
     FM311500 18008KT P6SM BKN035=



000
FTUS43 KDVN 310627 AAC
TAFDBQ
TAF AMD
KDBQ 310627Z 3106/0106 00000KT 2SM BR SCT008
      TEMPO 3106/3110 1/4SM FG BKN004
     FM311500 18008KT P6SM BKN035=



000
FTUS43 KDVN 310617 AAA
TAFDBQ
TAF AMD
KDBQ 310617Z 3106/0106 00000KT 2SM BR SCT008
      TEMPO 3108/3112 1SM BR BKN004
     FM311500 18008KT P6SM BKN035=



000
FTUS43 KDVN 310617 AAA
TAFDBQ
TAF AMD
KDBQ 310617Z 3106/0106 00000KT 2SM BR SCT008
      TEMPO 3108/3112 1SM BR BKN004
     FM311500 18008KT P6SM BKN035=



000
FTUS43 KDVN 310539 AAA
TAFMLI
TAF AMD
KMLI 310539Z 3106/0106 00000KT 2SM BR SKC
      TEMPO 3109/3112 1/2SM FG BKN002
     FM311600 17007KT P6SM BKN035=



000
FTUS43 KDVN 310539 AAA
TAFMLI
TAF AMD
KMLI 310539Z 3106/0106 00000KT 2SM BR SKC
      TEMPO 3109/3112 1/2SM FG BKN002
     FM311600 17007KT P6SM BKN035=



000
FTUS43 KDVN 310520
TAFBRL
TAF
KBRL 310520Z 3106/0106 10003KT P6SM SKC
     FM310630 00000KT 2SM BR FEW004
     FM310900 00000KT 1SM BR BKN002
      TEMPO 3109/3112 1/4SM FG VV002
     FM311500 16008KT P6SM BKN035=



000
FTUS43 KDVN 310520
TAFDBQ
TAF
KDBQ 310520Z 3106/0106 00000KT P6SM SKC
     FM310700 00000KT 5SM BR SKC
     FM310800 00000KT 2SM BR SCT008
      TEMPO 3109/3112 1SM BR BKN004
     FM311500 18008KT P6SM BKN035=



000
FTUS43 KDVN 310520
TAFBRL
TAF
KBRL 310520Z 3106/0106 10003KT P6SM SKC
     FM310630 00000KT 2SM BR FEW004
     FM310900 00000KT 1SM BR BKN002
      TEMPO 3109/3112 1/4SM FG VV002
     FM311500 16008KT P6SM BKN035=



000
FTUS43 KDVN 310520
TAFDBQ
TAF
KDBQ 310520Z 3106/0106 00000KT P6SM SKC
     FM310700 00000KT 5SM BR SKC
     FM310800 00000KT 2SM BR SCT008
      TEMPO 3109/3112 1SM BR BKN004
     FM311500 18008KT P6SM BKN035=



000
FTUS43 KDVN 310520
TAFCID
TAF
KCID 310520Z 3106/0106 10003KT 3SM BR SKC
     FM310700 00000KT 1SM BR SKC
     FM310900 00000KT 1/2SM FG SKC
      TEMPO 3109/3112 1/4SM FG BKN002
     FM311500 16006KT 4SM BR BKN008
     FM311700 17007KT P6SM SCT035=



000
FTUS43 KDVN 310520
TAFMLI
TAF
KMLI 310520Z 3106/0106 00000KT 6SM BR SKC
     FM310700 00000KT 2SM BR SKC
      TEMPO 3109/3112 1/2SM FG BKN002
     FM311600 17007KT P6SM BKN035=



000
FTUS43 KDVN 310520
TAFCID
TAF
KCID 310520Z 3106/0106 10003KT 3SM BR SKC
     FM310700 00000KT 1SM BR SKC
     FM310900 00000KT 1/2SM FG SKC
      TEMPO 3109/3112 1/4SM FG BKN002
     FM311500 16006KT 4SM BR BKN008
     FM311700 17007KT P6SM SCT035=



000
FTUS43 KDVN 310520
TAFMLI
TAF
KMLI 310520Z 3106/0106 00000KT 6SM BR SKC
     FM310700 00000KT 2SM BR SKC
      TEMPO 3109/3112 1/2SM FG BKN002
     FM311600 17007KT P6SM BKN035=



000
FTUS43 KDVN 310315 AAA
TAFBRL
TAF AMD
KBRL 310315Z 3103/3124 09003KT P6SM SKC
     FM310500 VRB03KT 3SM BR SCT005
     FM310630 00000KT 1/2SM FG OVC005
      TEMPO 3109/3112 1/4SM FG VV002
     FM311600 16008KT 6SM BR SCT006 BKN035=



000
FTUS43 KDVN 302321
TAFBRL
TAF
KBRL 302321Z 3100/3124 00000KT 6SM BR FEW005
     FM310300 VRB03KT 3SM BR SCT005
     FM310500 00000KT 1/2SM FG OVC005
      TEMPO 3109/3112 1/4SM FG VV002
     FM311600 16008KT 6SM BR SCT006 BKN035=



000
FTUS43 KDVN 302321
TAFDBQ
TAF
KDBQ 302321Z 3100/3124 20003KT P6SM SCT025
     FM310600 00000KT 5SM BR SKC
     FM310800 00000KT 2SM BR SCT008
     FM311500 18008KT P6SM BKN035=



000
FTUS43 KDVN 302321
TAFMLI
TAF
KMLI 302321Z 3100/3124 VRB03KT P6SM FEW025
     FM310500 00000KT 3SM BR SCT025
     FM310600 00000KT 2SM BR FEW002
      TEMPO 3109/3112 1/2SM FG BKN002
     FM311600 16008KT P6SM BKN035=



000
FTUS43 KDVN 302321
TAFBRL
TAF
KBRL 302321Z 3100/3124 00000KT 6SM BR FEW005
     FM310300 VRB03KT 3SM BR SCT005
     FM310500 00000KT 1/2SM FG OVC005
      TEMPO 3109/3112 1/4SM FG VV002
     FM311600 16008KT 6SM BR SCT006 BKN035=



000
FTUS43 KDVN 302321
TAFDBQ
TAF
KDBQ 302321Z 3100/3124 20003KT P6SM SCT025
     FM310600 00000KT 5SM BR SKC
     FM310800 00000KT 2SM BR SCT008
     FM311500 18008KT P6SM BKN035=



000
FTUS43 KDVN 302321
TAFMLI
TAF
KMLI 302321Z 3100/3124 VRB03KT P6SM FEW025
     FM310500 00000KT 3SM BR SCT025
     FM310600 00000KT 2SM BR FEW002
      TEMPO 3109/3112 1/2SM FG BKN002
     FM311600 16008KT P6SM BKN035=



000
FTUS43 KDVN 302321
TAFCID
TAF
KCID 302321Z 3100/3124 23003KT P6SM SCT025
     FM310400 00000KT 4SM BR SKC
      TEMPO 3104/3106 2SM BR FEW002
     FM310600 14003KT 1 1/2SM BR SCT002 BKN025
     FM311500 16006KT 4SM BR BKN025
     FM311800 17007KT P6SM SCT035=



000
FTUS43 KDVN 302321
TAFCID
TAF
KCID 302321Z 3100/3124 23003KT P6SM SCT025
     FM310400 00000KT 4SM BR SKC
      TEMPO 3104/3106 2SM BR FEW002
     FM310600 14003KT 1 1/2SM BR SCT002 BKN025
     FM311500 16006KT 4SM BR BKN025
     FM311800 17007KT P6SM SCT035=



000
FTUS43 KDVN 302041 AAB
TAFBRL
TAF AMD
KBRL 302041Z 3021/3118 10005KT P6SM SCT025
     FM310100 VRB03KT P6SM SCT250
     FM310600 00000KT 2SM BR FEW002
      TEMPO 3109/3112 1/2SM FG BKN002
     FM311600 16008KT 6SM BR SCT006 BKN035=



000
FTUS43 KDVN 302040 AAA
TAFMLI
TAF AMD
KMLI 302040Z 3021/3118 VRB03KT P6SM SCT025
     FM310100 00000KT P6SM SCT250
     FM310600 00000KT 2SM BR FEW002
      TEMPO 3109/3112 1/2SM FG BKN002
     FM311600 16008KT 6SM BR SCT006 BKN035=



000
FTUS43 KDVN 302040 AAA
TAFMLI
TAF AMD
KMLI 302040Z 3021/3118 VRB03KT P6SM SCT025
     FM310100 00000KT P6SM SCT250
     FM310600 00000KT 2SM BR FEW002
      TEMPO 3109/3112 1/2SM FG BKN002
     FM311600 16008KT 6SM BR SCT006 BKN035=



000
FTUS43 KDVN 302039 AAA
TAFDBQ
TAF AMD
KDBQ 302039Z 3021/3118 00000KT P6SM SCT025 SCT250
     FM310600 00000KT 5SM BR SKC
     FM310800 00000KT 2SM BR SCT008
     FM311500 18008KT P6SM BKN035=



000
FTUS43 KDVN 302039 AAA
TAFDBQ
TAF AMD
KDBQ 302039Z 3021/3118 00000KT P6SM SCT025 SCT250
     FM310600 00000KT 5SM BR SKC
     FM310800 00000KT 2SM BR SCT008
     FM311500 18008KT P6SM BKN035=



000
FTUS43 KDVN 301930 AAA
TAFBRL
TAF AMD
KBRL 301930Z 3020/3118 10005KT P6SM SCT025
      TEMPO 3020/3022 BKN025
     FM310100 VRB03KT P6SM FEW035 SCT250
     FM310600 00000KT 2SM BR FEW002
      TEMPO 3109/3112 1/2SM FG BKN002
     FM311600 16008KT 6SM BR SCT006 BKN035=



000
FTUS43 KDVN 301930 AAA
TAFBRL
TAF AMD
KBRL 301930Z 3020/3118 10005KT P6SM SCT025
      TEMPO 3020/3022 BKN025
     FM310100 VRB03KT P6SM FEW035 SCT250
     FM310600 00000KT 2SM BR FEW002
      TEMPO 3109/3112 1/2SM FG BKN002
     FM311600 16008KT 6SM BR SCT006 BKN035=



000
FTUS43 KDVN 301753
TAFCID
TAF
KCID 301753Z 3018/3118 15006KT P6SM SCT008 BKN022
     FM302300 16004KT P6SM SCT035
     FM310600 00000KT 2SM BR FEW002
      TEMPO 3109/3112 1/2SM FG BKN002
     FM311600 16008KT 6SM BR SCT006 BKN035=



000
FTUS43 KDVN 301753
TAFBRL
TAF
KBRL 301753Z 3018/3118 VRB03KT P6SM SCT012
      TEMPO 3018/3020 BKN012
     FM302000 07006KT P6SM SCT030
     FM310100 VRB03KT P6SM SCT250
     FM310600 00000KT 2SM BR FEW002
      TEMPO 3109/3112 1/2SM FG BKN002
     FM311600 16008KT 6SM BR SCT006 BKN035=



000
FTUS43 KDVN 301753
TAFDBQ
TAF
KDBQ 301753Z 3018/3118 00000KT P6SM BKN018
     FM301900 16004KT P6SM SCT025
      TEMPO 3019/3022 BKN025
     FM310600 00000KT 5SM BR SKC
     FM310800 00000KT 2SM BR SCT008
     FM311500 18008KT P6SM BKN035=



000
FTUS43 KDVN 301753
TAFMLI
TAF
KMLI 301753Z 3018/3118 VRB03KT P6SM SCT025
      TEMPO 3018/3022 BKN025
     FM310600 00000KT 2SM BR FEW002
      TEMPO 3109/3112 1/2SM FG BKN002
     FM311600 16008KT 6SM BR SCT006 BKN035=



000
FTUS43 KDVN 301753
TAFDBQ
TAF
KDBQ 301753Z 3018/3118 00000KT P6SM BKN018
     FM301900 16004KT P6SM SCT025
      TEMPO 3019/3022 BKN025
     FM310600 00000KT 5SM BR SKC
     FM310800 00000KT 2SM BR SCT008
     FM311500 18008KT P6SM BKN035=



000
FTUS43 KDVN 301753
TAFCID
TAF
KCID 301753Z 3018/3118 15006KT P6SM SCT008 BKN022
     FM302300 16004KT P6SM SCT035
     FM310600 00000KT 2SM BR FEW002
      TEMPO 3109/3112 1/2SM FG BKN002
     FM311600 16008KT 6SM BR SCT006 BKN035=



000
FTUS43 KDVN 301753
TAFBRL
TAF
KBRL 301753Z 3018/3118 VRB03KT P6SM SCT012
      TEMPO 3018/3020 BKN012
     FM302000 07006KT P6SM SCT030
     FM310100 VRB03KT P6SM SCT250
     FM310600 00000KT 2SM BR FEW002
      TEMPO 3109/3112 1/2SM FG BKN002
     FM311600 16008KT 6SM BR SCT006 BKN035=



000
FTUS43 KDVN 301753
TAFMLI
TAF
KMLI 301753Z 3018/3118 VRB03KT P6SM SCT025
      TEMPO 3018/3022 BKN025
     FM310600 00000KT 2SM BR FEW002
      TEMPO 3109/3112 1/2SM FG BKN002
     FM311600 16008KT 6SM BR SCT006 BKN035=



000
FTUS43 KDVN 301729 AAD
TAFBRL
TAF AMD
KBRL 301729Z 3017/3112 VRB03KT P6SM SCT010 SCT025
      TEMPO 3018/3020 BKN010
     FM302000 14004KT P6SM SCT025
     FM310900 00000KT 4SM BR SKC=



000
FTUS43 KDVN 301729 AAD
TAFBRL
TAF AMD
KBRL 301729Z 3017/3112 VRB03KT P6SM SCT010 SCT025
      TEMPO 3018/3020 BKN010
     FM302000 14004KT P6SM SCT025
     FM310900 00000KT 4SM BR SKC=



000
FTUS43 KDVN 301728 AAC
TAFDBQ
TAF AMD
KDBQ 301728Z 3017/3112 VRB03KT P6SM OVC018
     FM301900 14004KT P6SM BKN022
     FM302300 16004KT P6SM SCT035
     FM311000 18003KT 4SM BR SKC=



000
FTUS43 KDVN 301728 AAE
TAFMLI
TAF AMD
KMLI 301728Z 3017/3112 VRB03KT P6SM SCT012 SCT250
      TEMPO 3018/3020 BKN012
     FM302000 10004KT P6SM SCT008 BKN022
     FM302300 14004KT P6SM SCT025
     FM310900 00000KT 4SM BR SKC=



000
FTUS43 KDVN 301728 AAE
TAFMLI
TAF AMD
KMLI 301728Z 3017/3112 VRB03KT P6SM SCT012 SCT250
      TEMPO 3018/3020 BKN012
     FM302000 10004KT P6SM SCT008 BKN022
     FM302300 14004KT P6SM SCT025
     FM310900 00000KT 4SM BR SKC=



000
FTUS43 KDVN 301728 AAC
TAFDBQ
TAF AMD
KDBQ 301728Z 3017/3112 VRB03KT P6SM OVC018
     FM301900 14004KT P6SM BKN022
     FM302300 16004KT P6SM SCT035
     FM311000 18003KT 4SM BR SKC=



000
FTUS43 KDVN 301726 AAC
TAFCID
TAF AMD
KCID 301726Z 3017/3112 15006KT P6SM SCT008 BKN022
      TEMPO 3018/3020 BKN012
     FM302300 16004KT P6SM SCT035
     FM310900 16003KT 4SM BR SKC=



000
FTUS43 KDVN 301726 AAC
TAFCID
TAF AMD
KCID 301726Z 3017/3112 15006KT P6SM SCT008 BKN022
      TEMPO 3018/3020 BKN012
     FM302300 16004KT P6SM SCT035
     FM310900 16003KT 4SM BR SKC=



000
FTUS43 KDVN 301629 AAD
TAFMLI
TAF AMD
KMLI 301629Z 3016/3112 07003KT P6SM SCT007
      TEMPO 3016/3018 BKN007
     FM301800 10004KT P6SM SCT008 BKN022
     FM302100 14004KT P6SM SCT025
     FM310900 00000KT 4SM BR SKC=



000
FTUS43 KDVN 301629 AAD
TAFMLI
TAF AMD
KMLI 301629Z 3016/3112 07003KT P6SM SCT007
      TEMPO 3016/3018 BKN007
     FM301800 10004KT P6SM SCT008 BKN022
     FM302100 14004KT P6SM SCT025
     FM310900 00000KT 4SM BR SKC=



000
FTUS43 KDVN 301616 AAC
TAFMLI
TAF AMD
KMLI 301616Z 3016/3112 VRB03KT 5SM BR BKN005
     FM301700 07004KT 6SM BR OVC006
     FM301800 10004KT P6SM SCT008 BKN022
     FM302100 14004KT P6SM SCT025
     FM310900 00000KT 4SM BR SKC=



000
FTUS43 KDVN 301616 AAC
TAFMLI
TAF AMD
KMLI 301616Z 3016/3112 VRB03KT 5SM BR BKN005
     FM301700 07004KT 6SM BR OVC006
     FM301800 10004KT P6SM SCT008 BKN022
     FM302100 14004KT P6SM SCT025
     FM310900 00000KT 4SM BR SKC=



000
FTUS43 KDVN 301614 AAB
TAFDBQ
TAF AMD
KDBQ 301614Z 3016/3112 VRB03KT P6SM OVC018
     FM301700 14004KT P6SM BKN022
     FM302100 16004KT P6SM SCT035
     FM311000 18003KT 4SM BR SKC=



000
FTUS43 KDVN 301614 AAB
TAFCID
TAF AMD
KCID 301614Z 3016/3112 15006KT P6SM SCT008 BKN022
      TEMPO 3016/3018 BKN008
     FM301900 16004KT P6SM SCT035
     FM310900 16003KT 4SM BR SKC=



000
FTUS43 KDVN 301614 AAB
TAFDBQ
TAF AMD
KDBQ 301614Z 3016/3112 VRB03KT P6SM OVC018
     FM301700 14004KT P6SM BKN022
     FM302100 16004KT P6SM SCT035
     FM311000 18003KT 4SM BR SKC=



000
FTUS43 KDVN 301508 AAC
TAFBRL
TAF AMD
KBRL 301508Z 3015/3112 06004KT 1 1/2SM BR OVC002
     FM301600 07004KT 4SM BR OVC003
     FM301700 09005KT P6SM OVC004
     FM301800 11006KT P6SM SCT008 BKN022
     FM302000 14004KT P6SM SCT025
     FM310900 00000KT 4SM BR SKC=



000
FTUS43 KDVN 301507 AAB
TAFMLI
TAF AMD
KMLI 301507Z 3015/3112 VRB03KT 5SM BR BKN003
     FM301600 07004KT 6SM BR OVC004
     FM301800 10004KT P6SM SCT008 BKN022
     FM301900 14004KT P6SM SCT025
     FM310900 00000KT 4SM BR SKC=



000
FTUS43 KDVN 301507 AAB
TAFMLI
TAF AMD
KMLI 301507Z 3015/3112 VRB03KT 5SM BR BKN003
     FM301600 07004KT 6SM BR OVC004
     FM301800 10004KT P6SM SCT008 BKN022
     FM301900 14004KT P6SM SCT025
     FM310900 00000KT 4SM BR SKC=



000
FTUS43 KDVN 301413 AAB
TAFBRL
TAF AMD
KBRL 301413Z 3014/3112 09004KT 1/4SM FG VV002
     FM301600 10005KT 1 1/2SM BR BKN004
     FM301700 11006KT 4SM BR SCT008 BKN022
     FM301900 14004KT P6SM SCT025
     FM310900 00000KT 4SM BR SKC=



000
FTUS43 KDVN 301413 AAB
TAFBRL
TAF AMD
KBRL 301413Z 3014/3112 09004KT 1/4SM FG VV002
     FM301600 10005KT 1 1/2SM BR BKN004
     FM301700 11006KT 4SM BR SCT008 BKN022
     FM301900 14004KT P6SM SCT025
     FM310900 00000KT 4SM BR SKC=



000
FTUS43 KDVN 301412 AAA
TAFMLI
TAF AMD
KMLI 301412Z 3014/3112 07004KT 1/4SM FG VV002
     FM301600 09003KT 1 1/2SM BR BKN004
     FM301700 10004KT 4SM BR SCT008 BKN022
     FM301900 14004KT P6SM SCT025
     FM310900 00000KT 4SM BR SKC=



000
FTUS43 KDVN 301412 AAA
TAFMLI
TAF AMD
KMLI 301412Z 3014/3112 07004KT 1/4SM FG VV002
     FM301600 09003KT 1 1/2SM BR BKN004
     FM301700 10004KT 4SM BR SCT008 BKN022
     FM301900 14004KT P6SM SCT025
     FM310900 00000KT 4SM BR SKC=



000
FTUS43 KDVN 301410 AAA
TAFDBQ
TAF AMD
KDBQ 301410Z 3014/3112 00000KT P6SM OVC018
     FM301600 11003KT P6SM BKN022
     FM301900 16004KT P6SM SCT035
     FM311000 18003KT 4SM BR SKC=



000
FTUS43 KDVN 301410 AAA
TAFDBQ
TAF AMD
KDBQ 301410Z 3014/3112 00000KT P6SM OVC018
     FM301600 11003KT P6SM BKN022
     FM301900 16004KT P6SM SCT035
     FM311000 18003KT 4SM BR SKC=



000
FTUS43 KDVN 301409 AAA
TAFCID
TAF AMD
KCID 301409Z 3014/3112 11003KT 1 1/2SM BR OVC002
     FM301500 12004KT 3SM BR BKN004 OVC022
     FM301700 12004KT 6SM BR BKN025
     FM301900 16004KT P6SM SCT035
     FM310900 16003KT 4SM BR SKC=



000
FTUS43 KDVN 301409 AAA
TAFCID
TAF AMD
KCID 301409Z 3014/3112 11003KT 1 1/2SM BR OVC002
     FM301500 12004KT 3SM BR BKN004 OVC022
     FM301700 12004KT 6SM BR BKN025
     FM301900 16004KT P6SM SCT035
     FM310900 16003KT 4SM BR SKC=



000
FTUS43 KDVN 301211 AAA
TAFBRL
TAF AMD
KBRL 301211Z 3012/3112 03002KT 2SM BR SCT008
      TEMPO 3012/3014 1/4SM FG VV001
     FM301500 09003KT P6SM SKC
     FM301800 14004KT P6SM SCT025
     FM310900 18002KT 4SM BR SKC=



000
FTUS43 KDVN 301211 AAA
TAFBRL
TAF AMD
KBRL 301211Z 3012/3112 03002KT 2SM BR SCT008
      TEMPO 3012/3014 1/4SM FG VV001
     FM301500 09003KT P6SM SKC
     FM301800 14004KT P6SM SCT025
     FM310900 18002KT 4SM BR SKC=



000
FTUS43 KDVN 301120
TAFBRL
TAF
KBRL 301120Z 3012/3112 03002KT 2SM BR SCT008
      TEMPO 3012/3013 1/4SM FG VV001
     FM301500 09003KT P6SM SKC
     FM301800 14004KT P6SM SCT025
     FM310900 18002KT 4SM BR SKC=



000
FTUS43 KDVN 301120
TAFCID
TAF
KCID 301120Z 3012/3112 08002KT 4SM BR OVC022
      TEMPO 3012/3014 1/4SM FG VV001
     FM301600 16004KT P6SM SCT035
     FM310900 16003KT 4SM BR SKC=



000
FTUS43 KDVN 301120
TAFBRL
TAF
KBRL 301120Z 3012/3112 03002KT 2SM BR SCT008
      TEMPO 3012/3013 1/4SM FG VV001
     FM301500 09003KT P6SM SKC
     FM301800 14004KT P6SM SCT025
     FM310900 18002KT 4SM BR SKC=



000
FTUS43 KDVN 301120
TAFCID
TAF
KCID 301120Z 3012/3112 08002KT 4SM BR OVC022
      TEMPO 3012/3014 1/4SM FG VV001
     FM301600 16004KT P6SM SCT035
     FM310900 16003KT 4SM BR SKC=



000
FTUS43 KDVN 301120
TAFMLI
TAF
KMLI 301120Z 3012/3112 00000KT 1/4SM FG VV002
     FM301500 VRB03KT 3SM BR SKC
     FM301600 14004KT P6SM SCT025
     FM310900 00000KT 4SM BR SKC=



000
FTUS43 KDVN 301120
TAFDBQ
TAF
KDBQ 301120Z 3012/3112 02004KT P6SM SKC
      TEMPO 3012/3014 1/2SM FG VV001
     FM301700 16004KT P6SM FEW040
     FM311000 18003KT 4SM BR SKC=



000
FTUS43 KDVN 301120
TAFDBQ
TAF
KDBQ 301120Z 3012/3112 02004KT P6SM SKC
      TEMPO 3012/3014 1/2SM FG VV001
     FM301700 16004KT P6SM FEW040
     FM311000 18003KT 4SM BR SKC=



000
FTUS43 KDVN 301120
TAFMLI
TAF
KMLI 301120Z 3012/3112 00000KT 1/4SM FG VV002
     FM301500 VRB03KT 3SM BR SKC
     FM301600 14004KT P6SM SCT025
     FM310900 00000KT 4SM BR SKC=



000
FTUS43 KDVN 300908 AAC
TAFBRL
TAF AMD
KBRL 300908Z 3009/3106 03002KT 1/2SM FG VV002
      TEMPO 3009/3013 1/4SM FG VV001
     FM301400 VRB03KT 1/2SM FG OVC003
     FM301500 10004KT 2SM BR OVC005
     FM301800 14004KT P6SM SCT025=



000
FTUS43 KDVN 300908 AAC
TAFBRL
TAF AMD
KBRL 300908Z 3009/3106 03002KT 1/2SM FG VV002
      TEMPO 3009/3013 1/4SM FG VV001
     FM301400 VRB03KT 1/2SM FG OVC003
     FM301500 10004KT 2SM BR OVC005
     FM301800 14004KT P6SM SCT025=



000
FTUS43 KDVN 300907 AAC
TAFDBQ
TAF AMD
KDBQ 300907Z 3009/3106 02004KT 6SM BR SKC
      TEMPO 3011/3014 1/4SM FG VV001
     FM301400 VRB03KT 1SM BR OVC004
     FM301700 16004KT P6SM SCT025=



000
FTUS43 KDVN 300907 AAC
TAFDBQ
TAF AMD
KDBQ 300907Z 3009/3106 02004KT 6SM BR SKC
      TEMPO 3011/3014 1/4SM FG VV001
     FM301400 VRB03KT 1SM BR OVC004
     FM301700 16004KT P6SM SCT025=



000
FTUS43 KDVN 300854 AAB
TAFCID
TAF AMD
KCID 300854Z 3009/3106 00000KT 4SM BR OVC013
      TEMPO 3009/3010 1/4SM FG VV001
     FM301000 08002KT 1/4SM FG VV001
     FM301400 10004KT 3SM BR BKN008
     FM301700 16004KT P6SM SCT035=



000
FTUS43 KDVN 300854 AAB
TAFCID
TAF AMD
KCID 300854Z 3009/3106 00000KT 4SM BR OVC013
      TEMPO 3009/3010 1/4SM FG VV001
     FM301000 08002KT 1/4SM FG VV001
     FM301400 10004KT 3SM BR BKN008
     FM301700 16004KT P6SM SCT035=



000
FTUS43 KDVN 300757 AAB
TAFDBQ
TAF AMD
KDBQ 300757Z 3008/3106 02004KT 6SM BR SKC
      TEMPO 3008/3010 1/2SM FG VV002
     FM301000 VRB03KT 1/4SM FG VV002
     FM301400 VRB03KT 1SM BR OVC004
     FM301700 16004KT P6SM SCT025=



000
FTUS43 KDVN 300757 AAB
TAFDBQ
TAF AMD
KDBQ 300757Z 3008/3106 02004KT 6SM BR SKC
      TEMPO 3008/3010 1/2SM FG VV002
     FM301000 VRB03KT 1/4SM FG VV002
     FM301400 VRB03KT 1SM BR OVC004
     FM301700 16004KT P6SM SCT025=



000
FTUS43 KDVN 300757 AAA
TAFCID
TAF AMD
KCID 300757Z 3008/3106 00000KT 1SM BR OVC013
      TEMPO 3008/3010 1/4SM FG VV001
     FM301000 08002KT 1/4SM FG VV001
     FM301400 10004KT 3SM BR BKN008
     FM301700 16004KT P6SM SCT035=



000
FTUS43 KDVN 300655 AAB
TAFBRL
TAF AMD
KBRL 300655Z 3007/3106 04003KT 2SM BR BKN003
      TEMPO 3007/3009 1/4SM FG VV002
     FM300900 03002KT 1/4SM FG VV001
     FM301300 VRB03KT 1/2SM FG OVC003
     FM301500 10004KT 2SM BR OVC005
     FM301800 14004KT P6SM SCT025=



000
FTUS43 KDVN 300655 AAB
TAFBRL
TAF AMD
KBRL 300655Z 3007/3106 04003KT 2SM BR BKN003
      TEMPO 3007/3009 1/4SM FG VV002
     FM300900 03002KT 1/4SM FG VV001
     FM301300 VRB03KT 1/2SM FG OVC003
     FM301500 10004KT 2SM BR OVC005
     FM301800 14004KT P6SM SCT025=



000
FTUS43 KDVN 300654 AAA
TAFDBQ
TAF AMD
KDBQ 300654Z 3007/3106 02004KT 6SM BR BKN025
      TEMPO 3007/3010 1/2SM FG VV002
     FM301000 VRB03KT 1/4SM FG VV002
     FM301400 VRB03KT 1SM BR OVC004
     FM301700 16004KT P6SM SCT025=



000
FTUS43 KDVN 300549 AAA
TAFBRL
TAF AMD
KBRL 300549Z 3006/3106 04003KT 2SM BR BKN003
     FM300700 00000KT 1/2SM FG BKN001
      TEMPO 3007/3009 1/4SM FG VV002
     FM300900 03002KT 1/4SM FG VV001
     FM301300 VRB03KT 1/2SM FG OVC003
     FM301500 10004KT 2SM BR OVC005
     FM301800 14004KT P6SM SCT025=



000
FTUS43 KDVN 300549 AAA
TAFBRL
TAF AMD
KBRL 300549Z 3006/3106 04003KT 2SM BR BKN003
     FM300700 00000KT 1/2SM FG BKN001
      TEMPO 3007/3009 1/4SM FG VV002
     FM300900 03002KT 1/4SM FG VV001
     FM301300 VRB03KT 1/2SM FG OVC003
     FM301500 10004KT 2SM BR OVC005
     FM301800 14004KT P6SM SCT025=



000
FTUS43 KDVN 300520
TAFMLI
TAF
KMLI 300520Z 3006/3106 00000KT 1/2SM FG OVC004
      TEMPO 3006/3008 1/4SM FG VV001
     FM300800 00000KT 1/4SM FG VV001
     FM301500 VRB03KT 3SM BR BKN008
     FM301600 14004KT P6SM SCT025=



000
FTUS43 KDVN 300520
TAFDBQ
TAF
KDBQ 300520Z 3006/3106 02004KT 6SM BR BKN025
     FM300700 VRB03KT 1SM BR OVC004
      TEMPO 3007/3010 1/2SM FG VV002
     FM301000 VRB03KT 1/4SM FG VV002
     FM301400 VRB03KT 1SM BR OVC004
     FM301700 16004KT P6SM SCT025=



000
FTUS43 KDVN 300520
TAFCID
TAF
KCID 300520Z 3006/3106 00000KT 1SM BR SCT025
      TEMPO 3006/3010 1/4SM FG VV001
     FM301000 08002KT 1/4SM FG VV001
     FM301400 10004KT 3SM BR BKN008
     FM301700 16004KT P6SM SCT035=



000
FTUS43 KDVN 300520
TAFMLI
TAF
KMLI 300520Z 3006/3106 00000KT 1/2SM FG OVC004
      TEMPO 3006/3008 1/4SM FG VV001
     FM300800 00000KT 1/4SM FG VV001
     FM301500 VRB03KT 3SM BR BKN008
     FM301600 14004KT P6SM SCT025=



000
FTUS43 KDVN 300520
TAFBRL
TAF
KBRL 300520Z 3006/3106 04003KT 5SM BR SKC
     FM300700 00000KT 1/2SM FG BKN001
      TEMPO 3007/3009 1/4SM FG VV002
     FM300900 03002KT 1/4SM FG VV001
     FM301300 VRB03KT 1/2SM FG OVC003
     FM301500 10004KT 2SM BR OVC005
     FM301800 14004KT P6SM SCT025=



000
FTUS43 KDVN 300520
TAFDBQ
TAF
KDBQ 300520Z 3006/3106 02004KT 6SM BR BKN025
     FM300700 VRB03KT 1SM BR OVC004
      TEMPO 3007/3010 1/2SM FG VV002
     FM301000 VRB03KT 1/4SM FG VV002
     FM301400 VRB03KT 1SM BR OVC004
     FM301700 16004KT P6SM SCT025=



000
FTUS43 KDVN 300520
TAFCID
TAF
KCID 300520Z 3006/3106 00000KT 1SM BR SCT025
      TEMPO 3006/3010 1/4SM FG VV001
     FM301000 08002KT 1/4SM FG VV001
     FM301400 10004KT 3SM BR BKN008
     FM301700 16004KT P6SM SCT035=



000
FTUS43 KDVN 300520
TAFBRL
TAF
KBRL 300520Z 3006/3106 04003KT 5SM BR SKC
     FM300700 00000KT 1/2SM FG BKN001
      TEMPO 3007/3009 1/4SM FG VV002
     FM300900 03002KT 1/4SM FG VV001
     FM301300 VRB03KT 1/2SM FG OVC003
     FM301500 10004KT 2SM BR OVC005
     FM301800 14004KT P6SM SCT025=



000
FTUS43 KDVN 300335 AAC
TAFMLI
TAF AMD
KMLI 300335Z 3004/3024 04003KT 2SM BR SCT005 BKN017
      TEMPO 3004/3006 1/2SM FG BKN005
     FM300600 00000KT 1/2SM FG OVC004
      TEMPO 3009/3013 1/4SM FG VV002
     FM301500 VRB03KT 3SM BR BKN008
     FM301600 14004KT P6SM SCT025=



000
FTUS43 KDVN 300249 AAB
TAFMLI
TAF AMD
KMLI 300249Z 3003/3024 04003KT 4SM BR SCT008
      TEMPO 3003/3005 1SM BR BKN008
     FM300600 00000KT 1SM BR OVC005
      TEMPO 3009/3013 1/2SM FG VV002
     FM301500 VRB03KT 3SM BR BKN008
     FM301600 14004KT P6SM SCT025=



000
FTUS43 KDVN 300249 AAB
TAFMLI
TAF AMD
KMLI 300249Z 3003/3024 04003KT 4SM BR SCT008
      TEMPO 3003/3005 1SM BR BKN008
     FM300600 00000KT 1SM BR OVC005
      TEMPO 3009/3013 1/2SM FG VV002
     FM301500 VRB03KT 3SM BR BKN008
     FM301600 14004KT P6SM SCT025=



000
FTUS43 KDVN 300206 AAA
TAFCID
TAF AMD
KCID 300206Z 3002/3024 VRB03KT P6SM BKN035
     FM300400 VRB03KT 4SM BR BKN025
     FM300800 VRB03KT 1SM BR OVC005
      TEMPO 3009/3013 1/4SM FG VV001
     FM301500 10004KT 4SM BR BKN008
     FM301700 16004KT P6SM BKN035=



000
FTUS43 KDVN 300206 AAA
TAFCID
TAF AMD
KCID 300206Z 3002/3024 VRB03KT P6SM BKN035
     FM300400 VRB03KT 4SM BR BKN025
     FM300800 VRB03KT 1SM BR OVC005
      TEMPO 3009/3013 1/4SM FG VV001
     FM301500 10004KT 4SM BR BKN008
     FM301700 16004KT P6SM BKN035=



000
FTUS43 KDVN 300113 AAA
TAFBRL
TAF AMD
KBRL 300113Z 3001/3024 01006KT P6SM SCT020 BKN040
     FM300300 03003KT 5SM BR BKN025
     FM300700 00000KT 1SM BR OVC014
      TEMPO 3009/3013 1/2SM FG VV002
     FM301500 VRB03KT 3SM BR BKN009
     FM301700 14004KT P6SM SCT025=



000
FTUS43 KDVN 300113 AAA
TAFBRL
TAF AMD
KBRL 300113Z 3001/3024 01006KT P6SM SCT020 BKN040
     FM300300 03003KT 5SM BR BKN025
     FM300700 00000KT 1SM BR OVC014
      TEMPO 3009/3013 1/2SM FG VV002
     FM301500 VRB03KT 3SM BR BKN009
     FM301700 14004KT P6SM SCT025=



000
FTUS43 KDVN 300112 AAA
TAFMLI
TAF AMD
KMLI 300112Z 3001/3024 04003KT P6SM BKN035
     FM300300 00000KT 4SM BR BKN029
     FM300600 00000KT 1SM BR OVC005
      TEMPO 3009/3013 1/2SM FG VV002
     FM301500 VRB03KT 3SM BR BKN008
     FM301600 14004KT P6SM SCT025=



000
FTUS43 KDVN 300112 AAA
TAFMLI
TAF AMD
KMLI 300112Z 3001/3024 04003KT P6SM BKN035
     FM300300 00000KT 4SM BR BKN029
     FM300600 00000KT 1SM BR OVC005
      TEMPO 3009/3013 1/2SM FG VV002
     FM301500 VRB03KT 3SM BR BKN008
     FM301600 14004KT P6SM SCT025=



000
FTUS43 KDVN 292321
TAFBRL
TAF
KBRL 292321Z 3000/3024 00000KT P6SM SCT020 OVC025
     FM300200 03003KT 5SM BR BKN025
     FM300700 00000KT 1SM BR OVC014
      TEMPO 3009/3013 1/2SM FG VV002
     FM301500 VRB03KT 3SM BR BKN009
     FM301700 14004KT P6SM SCT025=



000
FTUS43 KDVN 292321
TAFCID
TAF
KCID 292321Z 3000/3024 03003KT P6SM BKN017
     FM300400 VRB03KT 4SM BR OVC012
     FM300800 VRB03KT 1SM BR OVC005
      TEMPO 3009/3013 1/4SM FG VV001
     FM301500 10004KT 4SM BR BKN008
     FM301700 16004KT P6SM BKN035=



000
FTUS43 KDVN 292321
TAFDBQ
TAF
KDBQ 292321Z 3000/3024 02004KT P6SM OVC025
      TEMPO 3000/3004 6SM BR SCT025
     FM300400 VRB03KT 4SM BR OVC012
     FM300800 VRB03KT 1SM BR OVC005
      TEMPO 3009/3013 1/4SM FG VV001
     FM301500 10004KT 3SM BR BKN008
     FM301700 16004KT P6SM SCT025=



000
FTUS43 KDVN 292321
TAFMLI
TAF
KMLI 292321Z 3000/3024 VRB03KT P6SM OVC014
     FM300300 00000KT 4SM BR OVC008
     FM300600 00000KT 1SM BR OVC005
      TEMPO 3009/3013 1/2SM FG VV002
     FM301500 VRB03KT 3SM BR BKN008
     FM301600 14004KT P6SM SCT025=



000
FTUS43 KDVN 292321
TAFDBQ
TAF
KDBQ 292321Z 3000/3024 02004KT P6SM OVC025
      TEMPO 3000/3004 6SM BR SCT025
     FM300400 VRB03KT 4SM BR OVC012
     FM300800 VRB03KT 1SM BR OVC005
      TEMPO 3009/3013 1/4SM FG VV001
     FM301500 10004KT 3SM BR BKN008
     FM301700 16004KT P6SM SCT025=



000
FTUS43 KDVN 292321
TAFCID
TAF
KCID 292321Z 3000/3024 03003KT P6SM BKN017
     FM300400 VRB03KT 4SM BR OVC012
     FM300800 VRB03KT 1SM BR OVC005
      TEMPO 3009/3013 1/4SM FG VV001
     FM301500 10004KT 4SM BR BKN008
     FM301700 16004KT P6SM BKN035=



000
FTUS43 KDVN 292321
TAFBRL
TAF
KBRL 292321Z 3000/3024 00000KT P6SM SCT020 OVC025
     FM300200 03003KT 5SM BR BKN025
     FM300700 00000KT 1SM BR OVC014
      TEMPO 3009/3013 1/2SM FG VV002
     FM301500 VRB03KT 3SM BR BKN009
     FM301700 14004KT P6SM SCT025=



000
FTUS43 KDVN 292321
TAFMLI
TAF
KMLI 292321Z 3000/3024 VRB03KT P6SM OVC014
     FM300300 00000KT 4SM BR OVC008
     FM300600 00000KT 1SM BR OVC005
      TEMPO 3009/3013 1/2SM FG VV002
     FM301500 VRB03KT 3SM BR BKN008
     FM301600 14004KT P6SM SCT025=



000
FTUS43 KDVN 292219 AAA
TAFBRL
TAF AMD
KBRL 292219Z 2922/3018 VRB03KT P6SM VCSH SCT025 BKN035
      TEMPO 2922/3002 BKN025
     FM300200 35002KT 6SM BR BKN025
     FM300800 00000KT 1SM BR OVC006
      TEMPO 3009/3013 1/2SM FG VV002
     FM301500 VRB03KT 3SM BR BKN008
     FM301700 VRB04KT P6SM SCT008 BKN020=



000
FTUS43 KDVN 292219 AAA
TAFBRL
TAF AMD
KBRL 292219Z 2922/3018 VRB03KT P6SM VCSH SCT025 BKN035
      TEMPO 2922/3002 BKN025
     FM300200 35002KT 6SM BR BKN025
     FM300800 00000KT 1SM BR OVC006
      TEMPO 3009/3013 1/2SM FG VV002
     FM301500 VRB03KT 3SM BR BKN008
     FM301700 VRB04KT P6SM SCT008 BKN020=



000
FTUS43 KDVN 292215 AAB
TAFCID
TAF AMD
KCID 292215Z 2922/3018 03004KT P6SM OVC019
     FM300400 VRB03KT 4SM BR OVC012
     FM300800 VRB03KT 1SM BR OVC005
      TEMPO 3009/3013 1/4SM FG VV001
     FM301500 10004KT 3SM BR BKN008
     FM301700 16004KT P6SM SCT008 BKN020=



000
FTUS43 KDVN 292014 AAA
TAFDBQ
TAF AMD
KDBQ 292014Z 2920/3018 02005KT P6SM OVC022
     FM300400 VRB03KT 4SM BR OVC012
     FM300800 VRB03KT 1SM BR OVC005
      TEMPO 3009/3013 1/4SM FG VV001
     FM301500 10004KT 3SM BR BKN008
     FM301700 16004KT P6SM SCT008 BKN020=



000
FTUS43 KDVN 291959 AAA
TAFCID
TAF AMD
KCID 291959Z 2920/3018 VRB03KT P6SM OVC022
     FM300400 VRB03KT 4SM BR OVC012
     FM300800 VRB03KT 1SM BR OVC005
      TEMPO 3009/3013 1/4SM FG VV001
     FM301500 10004KT 3SM BR BKN008
     FM301700 16004KT P6SM SCT008 BKN020=



000
FTUS43 KDVN 291751
TAFCID
TAF
KCID 291751Z 2918/3018 02007KT P6SM OVC015
     FM300300 VRB03KT 4SM BR OVC008
     FM300700 VRB03KT 1SM BR OVC005
      TEMPO 3009/3013 1/4SM FG VV001
     FM301500 10004KT 3SM BR BKN008
     FM301700 16004KT P6SM SCT008 BKN020=



000
FTUS43 KDVN 291751
TAFDBQ
TAF
KDBQ 291751Z 2918/3018 04007KT P6SM OVC015
     FM300300 VRB03KT 4SM BR OVC008
     FM300700 VRB03KT 1SM BR OVC005
      TEMPO 3009/3013 1/4SM FG VV001
     FM301500 10004KT 3SM BR BKN008
     FM301700 16004KT P6SM SCT008 BKN020=



000
FTUS43 KDVN 291751
TAFBRL
TAF
KBRL 291751Z 2918/3018 00000KT P6SM OVC018
     FM292000 VRB03KT P6SM VCSH BKN022
     FM300400 00000KT 4SM BR OVC012
     FM300800 00000KT 1SM BR OVC006
      TEMPO 3009/3013 1/2SM FG VV002
     FM301500 VRB03KT 3SM BR BKN008
     FM301700 VRB04KT P6SM SCT008 BKN020=



000
FTUS43 KDVN 291751
TAFMLI
TAF
KMLI 291751Z 2918/3018 00000KT 4SM BR OVC015
     FM292000 VRB03KT P6SM VCSH BKN018
     FM300400 00000KT 4SM BR OVC008
     FM300800 00000KT 1SM BR OVC005
      TEMPO 3009/3013 1/2SM FG VV002
     FM301500 VRB03KT 3SM BR BKN008
     FM301700 VRB04KT P6SM SCT008 BKN020=



000
FTUS43 KDVN 291751
TAFCID
TAF
KCID 291751Z 2918/3018 02007KT P6SM OVC015
     FM300300 VRB03KT 4SM BR OVC008
     FM300700 VRB03KT 1SM BR OVC005
      TEMPO 3009/3013 1/4SM FG VV001
     FM301500 10004KT 3SM BR BKN008
     FM301700 16004KT P6SM SCT008 BKN020=



000
FTUS43 KDVN 291751
TAFBRL
TAF
KBRL 291751Z 2918/3018 00000KT P6SM OVC018
     FM292000 VRB03KT P6SM VCSH BKN022
     FM300400 00000KT 4SM BR OVC012
     FM300800 00000KT 1SM BR OVC006
      TEMPO 3009/3013 1/2SM FG VV002
     FM301500 VRB03KT 3SM BR BKN008
     FM301700 VRB04KT P6SM SCT008 BKN020=



000
FTUS43 KDVN 291751
TAFMLI
TAF
KMLI 291751Z 2918/3018 00000KT 4SM BR OVC015
     FM292000 VRB03KT P6SM VCSH BKN018
     FM300400 00000KT 4SM BR OVC008
     FM300800 00000KT 1SM BR OVC005
      TEMPO 3009/3013 1/2SM FG VV002
     FM301500 VRB03KT 3SM BR BKN008
     FM301700 VRB04KT P6SM SCT008 BKN020=



000
FTUS43 KDVN 291751
TAFDBQ
TAF
KDBQ 291751Z 2918/3018 04007KT P6SM OVC015
     FM300300 VRB03KT 4SM BR OVC008
     FM300700 VRB03KT 1SM BR OVC005
      TEMPO 3009/3013 1/4SM FG VV001
     FM301500 10004KT 3SM BR BKN008
     FM301700 16004KT P6SM SCT008 BKN020=



000
FTUS43 KDVN 291713 AAC
TAFMLI
TAF AMD
KMLI 291713Z 2917/3012 VRB03KT 6SM BR OVC015
      TEMPO 2917/2918 2SM -RA BR
     FM292000 01005KT P6SM BKN025
     FM300800 08003KT 4SM BR FEW100=



000
FTUS43 KDVN 291713 AAC
TAFMLI
TAF AMD
KMLI 291713Z 2917/3012 VRB03KT 6SM BR OVC015
      TEMPO 2917/2918 2SM -RA BR
     FM292000 01005KT P6SM BKN025
     FM300800 08003KT 4SM BR FEW100=



000
FTUS43 KDVN 291711 AAC
TAFCID
TAF AMD
KCID 291711Z 2917/3012 04006KT P6SM BKN015
     FM292100 07006KT P6SM BKN025
     FM300800 07003KT 2SM BR FEW100=



000
FTUS43 KDVN 291711 AAD
TAFDBQ
TAF AMD
KDBQ 291711Z 2917/3012 04007KT P6SM BKN015
     FM292100 03006KT P6SM BKN025
     FM300800 07003KT 2SM BR FEW100=



000
FTUS43 KDVN 291711 AAC
TAFCID
TAF AMD
KCID 291711Z 2917/3012 04006KT P6SM BKN015
     FM292100 07006KT P6SM BKN025
     FM300800 07003KT 2SM BR FEW100=



000
FTUS43 KDVN 291711 AAD
TAFDBQ
TAF AMD
KDBQ 291711Z 2917/3012 04007KT P6SM BKN015
     FM292100 03006KT P6SM BKN025
     FM300800 07003KT 2SM BR FEW100=



000
FTUS43 KDVN 291604 AAB
TAFBRL
TAF AMD
KBRL 291604Z 2916/3012 VRB03KT P6SM OVC018
     FM291900 32005KT P6SM BKN025
     FM292100 15006KT P6SM VCSH BKN040
     FM300800 06002KT 4SM BR FEW100=



000
FTUS43 KDVN 291604 AAB
TAFBRL
TAF AMD
KBRL 291604Z 2916/3012 VRB03KT P6SM OVC018
     FM291900 32005KT P6SM BKN025
     FM292100 15006KT P6SM VCSH BKN040
     FM300800 06002KT 4SM BR FEW100=



000
FTUS43 KDVN 291603 AAB
TAFMLI
TAF AMD
KMLI 291603Z 2916/3012 VRB03KT P6SM -RA OVC015
     FM292000 01005KT P6SM BKN025
     FM292200 04006KT P6SM BKN040
     FM300800 08003KT 4SM BR FEW100=



000
FTUS43 KDVN 291603 AAB
TAFMLI
TAF AMD
KMLI 291603Z 2916/3012 VRB03KT P6SM -RA OVC015
     FM292000 01005KT P6SM BKN025
     FM292200 04006KT P6SM BKN040
     FM300800 08003KT 4SM BR FEW100=



000
FTUS43 KDVN 291537 AAC
TAFDBQ
TAF AMD
KDBQ 291537Z 2916/3012 04005KT 6SM BR OVC007
     FM291800 04007KT P6SM BKN015
     FM292100 03006KT P6SM BKN025
     FM292300 07006KT P6SM SCT040
     FM300800 07003KT 2SM BR FEW100=



000
FTUS43 KDVN 291535 AAB
TAFCID
TAF AMD
KCID 291535Z 2916/3012 02007KT 4SM BR OVC010
     FM291800 04006KT P6SM BKN015
     FM292100 07006KT P6SM SCT040
     FM300800 07003KT 2SM BR FEW100=



000
FTUS43 KDVN 291535 AAB
TAFCID
TAF AMD
KCID 291535Z 2916/3012 02007KT 4SM BR OVC010
     FM291800 04006KT P6SM BKN015
     FM292100 07006KT P6SM SCT040
     FM300800 07003KT 2SM BR FEW100=



000
FTUS43 KDVN 291431 AAA
TAFBRL
TAF AMD
KBRL 291431Z 2915/3012 21005KT P6SM SCT025 OVC040
      TEMPO 2915/2917 BKN025
     FM292100 15006KT P6SM VCSH BKN040
     FM300800 06002KT 4SM BR FEW100=



000
FTUS43 KDVN 291431 AAA
TAFBRL
TAF AMD
KBRL 291431Z 2915/3012 21005KT P6SM SCT025 OVC040
      TEMPO 2915/2917 BKN025
     FM292100 15006KT P6SM VCSH BKN040
     FM300800 06002KT 4SM BR FEW100=



000
FTUS43 KDVN 291430 AAA
TAFMLI
TAF AMD
KMLI 291430Z 2915/3012 VRB03KT P6SM OVC025
     FM291800 19005KT P6SM BKN035
     FM292100 11006KT P6SM VCSH BKN040
     FM300800 08003KT 4SM BR FEW100=



000
FTUS43 KDVN 291429 AAB
TAFDBQ
TAF AMD
KDBQ 291429Z 2914/3012 VRB03KT 2SM BR OVC004
     FM291800 04005KT P6SM BKN025
     FM292200 07006KT P6SM SCT040
     FM300800 07003KT 2SM BR FEW100=



000
FTUS43 KDVN 291409 AAA
TAFCID
TAF AMD
KCID 291409Z 2914/3012 33004KT 2SM BR OVC004
      TEMPO 2915/2917 3SM BR OVC007
     FM291800 04006KT P6SM BKN015
     FM292100 07006KT P6SM SCT040
     FM300800 07003KT 2SM BR FEW100=



000
FTUS43 KDVN 291409 AAA
TAFCID
TAF AMD
KCID 291409Z 2914/3012 33004KT 2SM BR OVC004
      TEMPO 2915/2917 3SM BR OVC007
     FM291800 04006KT P6SM BKN015
     FM292100 07006KT P6SM SCT040
     FM300800 07003KT 2SM BR FEW100=



000
FTUS43 KDVN 291205 AAA
TAFDBQ
TAF AMD
KDBQ 291205Z 2912/3012 18010KT 4SM BR BKN007 OVC012
      TEMPO 2912/2914 1SM BR OVC005
     FM291600 04005KT P6SM BKN025
     FM292200 07006KT P6SM SCT040
     FM300800 07003KT 2SM BR FEW100=



000
FTUS43 KDVN 291123
TAFCID
TAF
KCID 291123Z 2912/3012 VRB02KT 6SM BR OVC013
      TEMPO 2912/2914 1 1/2SM BR OVC007
     FM291600 04006KT P6SM BKN025
     FM292100 07006KT P6SM SCT040
     FM300800 07003KT 2SM BR FEW100=



000
FTUS43 KDVN 291123
TAFMLI
TAF
KMLI 291123Z 2912/3012 VRB03KT P6SM BKN050
      TEMPO 2912/2915 4SM BR OVC020
     FM291500 19005KT P6SM BKN040
     FM292100 11006KT P6SM VCSH BKN040
     FM300800 08003KT 4SM BR FEW100=



000
FTUS43 KDVN 291123
TAFBRL
TAF
KBRL 291123Z 2912/3012 18005KT P6SM OVC040
      TEMPO 2912/2915 BKN025
     FM291500 18006KT P6SM BKN040
     FM292100 15006KT P6SM VCSH BKN040
     FM300800 06002KT 4SM BR FEW100=



000
FTUS43 KDVN 291123
TAFDBQ
TAF
KDBQ 291123Z 2912/3012 18010KT 4SM BR BKN007 OVC012
      TEMPO 2912/2914 1SM BR OVC007
     FM291600 04005KT P6SM BKN025
     FM292200 07006KT P6SM SCT040
     FM300800 07003KT 2SM BR FEW100=



000
FTUS43 KDVN 291123
TAFMLI
TAF
KMLI 291123Z 2912/3012 VRB03KT P6SM BKN050
      TEMPO 2912/2915 4SM BR OVC020
     FM291500 19005KT P6SM BKN040
     FM292100 11006KT P6SM VCSH BKN040
     FM300800 08003KT 4SM BR FEW100=



000
FTUS43 KDVN 291123
TAFBRL
TAF
KBRL 291123Z 2912/3012 18005KT P6SM OVC040
      TEMPO 2912/2915 BKN025
     FM291500 18006KT P6SM BKN040
     FM292100 15006KT P6SM VCSH BKN040
     FM300800 06002KT 4SM BR FEW100=



000
FTUS43 KDVN 291123
TAFCID
TAF
KCID 291123Z 2912/3012 VRB02KT 6SM BR OVC013
      TEMPO 2912/2914 1 1/2SM BR OVC007
     FM291600 04006KT P6SM BKN025
     FM292100 07006KT P6SM SCT040
     FM300800 07003KT 2SM BR FEW100=



000
FTUS43 KDVN 291123
TAFDBQ
TAF
KDBQ 291123Z 2912/3012 18010KT 4SM BR BKN007 OVC012
      TEMPO 2912/2914 1SM BR OVC007
     FM291600 04005KT P6SM BKN025
     FM292200 07006KT P6SM SCT040
     FM300800 07003KT 2SM BR FEW100=



000
FTUS43 KDVN 290959 AAB
TAFBRL
TAF AMD
KBRL 290959Z 2910/3006 16009KT P6SM VCSH OVC060
     FM291100 18005KT 6SM BR OVC025
     FM291500 18006KT P6SM BKN025
     FM292100 15006KT P6SM VCSH BKN040=



000
FTUS43 KDVN 290958 AAA
TAFBRL
TAF AMD
KBRL 290958Z 2910/3006 16009KT P6SM VCSH OVC060
     FM291100 18005KT 4SM BR OVC025
     FM291500 18006KT P6SM BKN025
     FM292100 15006KT P6SM VCSH BKN040=



000
FTUS43 KDVN 290958 AAA
TAFBRL
TAF AMD
KBRL 290958Z 2910/3006 16009KT P6SM VCSH OVC060
     FM291100 18005KT 4SM BR OVC025
     FM291500 18006KT P6SM BKN025
     FM292100 15006KT P6SM VCSH BKN040=



000
FTUS43 KDVN 290857 AAD
TAFDBQ
TAF AMD
KDBQ 290857Z 2909/3006 18010KT 6SM BR SCT007 OVC012
      TEMPO 2909/2913 1SM BR OVC007
     FM291600 35005KT P6SM BKN025
     FM292200 01006KT P6SM SCT040=



000
FTUS43 KDVN 290857 AAD
TAFDBQ
TAF AMD
KDBQ 290857Z 2909/3006 18010KT 6SM BR SCT007 OVC012
      TEMPO 2909/2913 1SM BR OVC007
     FM291600 35005KT P6SM BKN025
     FM292200 01006KT P6SM SCT040=



000
FTUS43 KDVN 290857 AAA
TAFMLI
TAF AMD
KMLI 290857Z 2909/3006 17005KT P6SM OVC030
     FM291200 VRB03KT 2SM BR OVC012
     FM291500 19005KT P6SM BKN025
     FM292100 17006KT P6SM VCSH BKN040=



000
FTUS43 KDVN 290857 AAA
TAFMLI
TAF AMD
KMLI 290857Z 2909/3006 17005KT P6SM OVC030
     FM291200 VRB03KT 2SM BR OVC012
     FM291500 19005KT P6SM BKN025
     FM292100 17006KT P6SM VCSH BKN040=



000
FTUS43 KDVN 290705 AAC
TAFDBQ
TAF AMD
KDBQ 290705Z 2907/3006 17005KT P6SM SCT007 OVC040
     FM290800 VRB03KT 2SM BR SCT007 OVC012
      TEMPO 2910/2914 1SM BR OVC007
     FM291600 35005KT P6SM BKN025
     FM292200 01006KT P6SM SCT040=



000
FTUS43 KDVN 290705 AAC
TAFDBQ
TAF AMD
KDBQ 290705Z 2907/3006 17005KT P6SM SCT007 OVC040
     FM290800 VRB03KT 2SM BR SCT007 OVC012
      TEMPO 2910/2914 1SM BR OVC007
     FM291600 35005KT P6SM BKN025
     FM292200 01006KT P6SM SCT040=



000
FTUS43 KDVN 290603 AAB
TAFDBQ
TAF AMD
KDBQ 290603Z 2906/3006 17005KT 3SM -RA BR BKN008
     FM290800 VRB03KT 2SM BR SCT007 OVC012
      TEMPO 2910/2914 1SM BR OVC007
     FM291600 35005KT P6SM BKN025
     FM292200 01006KT P6SM SCT040=



000
FTUS43 KDVN 290603 AAB
TAFDBQ
TAF AMD
KDBQ 290603Z 2906/3006 17005KT 3SM -RA BR BKN008
     FM290800 VRB03KT 2SM BR SCT007 OVC012
      TEMPO 2910/2914 1SM BR OVC007
     FM291600 35005KT P6SM BKN025
     FM292200 01006KT P6SM SCT040=



000
FTUS43 KDVN 290527 AAA
TAFDBQ
TAF AMD
KDBQ 290527Z 2905/3006 17005KT 3SM -RA BR BKN015
     FM291000 VRB03KT 2SM BR SCT007 OVC012
      TEMPO 2910/2914 1SM BR OVC007
     FM291600 35005KT P6SM BKN025
     FM292200 01006KT P6SM SCT040=



000
FTUS43 KDVN 290527 AAA
TAFDBQ
TAF AMD
KDBQ 290527Z 2905/3006 17005KT 3SM -RA BR BKN015
     FM291000 VRB03KT 2SM BR SCT007 OVC012
      TEMPO 2910/2914 1SM BR OVC007
     FM291600 35005KT P6SM BKN025
     FM292200 01006KT P6SM SCT040=



000
FTUS43 KDVN 290520
TAFCID
TAF
KCID 290520Z 2906/3006 17005KT 5SM BR VCSH BKN030
      TEMPO 2906/2909 3SM -RA BR BKN015
     FM290900 VRB02KT 3SM BR OVC015
      TEMPO 2910/2914 1 1/2SM BR OVC007
     FM291600 34006KT P6SM BKN025
     FM292100 36006KT P6SM SCT040=



000
FTUS43 KDVN 290520
TAFMLI
TAF
KMLI 290520Z 2906/3006 15008KT 5SM -RA BR OVC050
     FM290900 17005KT 3SM -RA BR OVC030
     FM291300 VRB03KT 2SM BR OVC012
     FM291500 19005KT P6SM BKN025
     FM292100 17006KT P6SM VCSH BKN040=



000
FTUS43 KDVN 290520
TAFDBQ
TAF
KDBQ 290520Z 2906/3006 15013KT 5SM -RA BR BKN030
     FM290800 17005KT 3SM -RA BR BKN015
     FM291000 VRB03KT 2SM BR SCT007 OVC012
      TEMPO 2910/2914 1SM BR OVC007
     FM291600 35005KT P6SM BKN025
     FM292200 01006KT P6SM SCT040=



000
FTUS43 KDVN 290520
TAFCID
TAF
KCID 290520Z 2906/3006 17005KT 5SM BR VCSH BKN030
      TEMPO 2906/2909 3SM -RA BR BKN015
     FM290900 VRB02KT 3SM BR OVC015
      TEMPO 2910/2914 1 1/2SM BR OVC007
     FM291600 34006KT P6SM BKN025
     FM292100 36006KT P6SM SCT040=



000
FTUS43 KDVN 290520
TAFBRL
TAF
KBRL 290520Z 2906/3006 16009KT P6SM VCSH OVC060
     FM291000 18005KT 4SM BR OVC025
     FM291500 18006KT P6SM BKN025
     FM292100 15006KT P6SM VCSH BKN040=



000
FTUS43 KDVN 290520
TAFDBQ
TAF
KDBQ 290520Z 2906/3006 15013KT 5SM -RA BR BKN030
     FM290800 17005KT 3SM -RA BR BKN015
     FM291000 VRB03KT 2SM BR SCT007 OVC012
      TEMPO 2910/2914 1SM BR OVC007
     FM291600 35005KT P6SM BKN025
     FM292200 01006KT P6SM SCT040=



000
FTUS43 KDVN 290520
TAFMLI
TAF
KMLI 290520Z 2906/3006 15008KT 5SM -RA BR OVC050
     FM290900 17005KT 3SM -RA BR OVC030
     FM291300 VRB03KT 2SM BR OVC012
     FM291500 19005KT P6SM BKN025
     FM292100 17006KT P6SM VCSH BKN040=



000
FTUS43 KDVN 290520
TAFBRL
TAF
KBRL 290520Z 2906/3006 16009KT P6SM VCSH OVC060
     FM291000 18005KT 4SM BR OVC025
     FM291500 18006KT P6SM BKN025
     FM292100 15006KT P6SM VCSH BKN040=



000
FTUS43 KDVN 290211 AAA
TAFMLI
TAF AMD
KMLI 290211Z 2902/2924 12007KT P6SM VCSH BKN060
      TEMPO 2902/2904 6SM -SHRA
     FM290400 14009KT 5SM -RA BR OVC050
     FM290800 15005KT 4SM -RA BR OVC030
     FM291300 VRB03KT 3SM BR SCT010 OVC020
     FM291600 VRB05KT P6SM BKN025=



000
FTUS43 KDVN 290209 AAB
TAFCID
TAF AMD
KCID 290209Z 2902/2924 13009KT 5SM -RA BR BKN030
      TEMPO 2902/2904 3SM TSRA BR BKN015CB
     FM290800 17005KT 3SM -RA BR OVC020
     FM291200 VRB03KT 2SM BR SCT007 OVC015
     FM291600 10007KT 6SM BR BKN025=



000
FTUS43 KDVN 290209 AAB
TAFCID
TAF AMD
KCID 290209Z 2902/2924 13009KT 5SM -RA BR BKN030
      TEMPO 2902/2904 3SM TSRA BR BKN015CB
     FM290800 17005KT 3SM -RA BR OVC020
     FM291200 VRB03KT 2SM BR SCT007 OVC015
     FM291600 10007KT 6SM BR BKN025=



    US Dept of Commerce
    National Oceanic and Atmospheric Administration
    National Weather Service
    1325 East West Highway
    Silver Spring, MD 20910
    Page Author: NWS Internet Services Team
Disclaimer
Information Quality
Credits
Glossary
Privacy Policy
Freedom of Information Act (FOIA)
About Us
Career Opportunities